createdAt,value
2023-03-18T00:00:10.262Z,62.92
2023-03-18T00:02:42.370Z,62.63
2023-03-18T00:05:14.466Z,62.97
2023-03-18T00:07:47.758Z,63.02
2023-03-18T00:10:20.430Z,62.89
2023-03-18T00:12:53.712Z,63.02
2023-03-18T00:15:25.182Z,62.94
2023-03-18T00:18:00.051Z,63.28
2023-03-18T00:20:41.707Z,63.12
2023-03-18T00:23:13.785Z,63.36
2023-03-18T00:25:46.382Z,63.06
2023-03-18T00:28:18.957Z,63.10
2023-03-18T00:30:51.510Z,63.51
2023-03-18T00:33:23.594Z,63.41
2023-03-18T00:35:55.190Z,63.89
2023-03-18T00:38:27.176Z,64.10
2023-03-18T00:41:10.898Z,63.84
2023-03-18T00:43:54.800Z,63.68
2023-03-18T00:46:26.489Z,64.24
2023-03-18T00:48:58.583Z,64.23
2023-03-18T00:51:30.141Z,64.57
2023-03-18T00:54:01.914Z,64.73
2023-03-18T00:56:33.460Z,64.63
2023-03-18T00:59:06.397Z,64.90
2023-03-18T01:01:38.873Z,64.79
2023-03-18T01:04:10.792Z,64.94
2023-03-18T01:06:42.356Z,64.90
2023-03-18T01:09:14.752Z,64.99
2023-03-18T01:11:46.283Z,64.94
2023-03-18T01:14:18.142Z,65.12
2023-03-18T01:16:49.706Z,65.34
2023-03-18T01:19:22.105Z,65.63
2023-03-18T01:21:53.615Z,65.55
2023-03-18T01:24:25.474Z,65.75
2023-03-18T01:26:56.985Z,65.63
2023-03-18T01:29:29.027Z,65.54
2023-03-18T01:32:00.628Z,65.33
2023-03-18T01:34:32.452Z,65.77
2023-03-18T01:37:03.941Z,65.68
2023-03-18T01:39:36.036Z,65.44
2023-03-18T01:42:07.521Z,65.04
2023-03-18T01:44:39.299Z,65.39
2023-03-18T01:47:10.791Z,65.10
2023-03-18T01:49:42.460Z,65.02
2023-03-18T01:52:15.694Z,64.76
2023-03-18T01:54:47.842Z,64.73
2023-03-18T01:57:19.375Z,64.81
2023-03-18T01:59:51.147Z,64.55
2023-03-18T02:02:22.658Z,64.44
2023-03-18T02:04:54.902Z,64.50
2023-03-18T02:07:26.468Z,64.98
2023-03-18T02:09:57.987Z,64.04
2023-03-18T02:12:29.520Z,64.22
2023-03-18T02:15:01.057Z,63.48
2023-03-18T02:17:32.674Z,63.59
2023-03-18T02:20:04.655Z,63.26
2023-03-18T02:22:38.362Z,63.15
2023-03-18T02:25:10.166Z,63.19
2023-03-18T02:27:41.666Z,63.15
2023-03-18T02:30:13.361Z,63.05
2023-03-18T02:32:44.860Z,63.05
2023-03-18T02:35:16.717Z,62.75
2023-03-18T02:37:48.268Z,62.47
2023-03-18T02:40:20.062Z,62.41
2023-03-18T02:42:51.576Z,62.18
2023-03-18T02:45:24.091Z,62.66
2023-03-18T02:47:56.111Z,62.17
2023-03-18T02:50:28.458Z,62.07
2023-03-18T02:52:59.948Z,61.74
2023-03-18T02:55:31.792Z,61.72
2023-03-18T02:58:03.278Z,61.79
2023-03-18T03:00:35.139Z,61.50
2023-03-18T03:03:07.166Z,61.68
2023-03-18T03:05:38.922Z,61.74
2023-03-18T03:08:10.517Z,61.91
2023-03-18T03:10:42.422Z,61.85
2023-03-18T03:13:13.992Z,61.71
2023-03-18T03:15:45.505Z,61.57
2023-03-18T03:18:17.048Z,61.59
2023-03-18T03:20:48.864Z,61.51
2023-03-18T03:23:20.485Z,61.20
2023-03-18T03:25:52.338Z,61.23
2023-03-18T03:28:23.831Z,61.19
2023-03-18T03:30:55.756Z,61.19
2023-03-18T03:33:27.841Z,61.64
2023-03-18T03:35:59.370Z,60.76
2023-03-18T03:38:31.157Z,61.05
2023-03-18T03:41:02.794Z,60.94
2023-03-18T03:43:34.859Z,61.20
2023-03-18T03:46:06.443Z,61.17
2023-03-18T03:48:38.434Z,61.01
2023-03-18T03:51:09.930Z,61.21
2023-03-18T03:53:41.712Z,61.20
2023-03-18T03:56:13.216Z,60.99
2023-03-18T03:58:46.094Z,61.04
2023-03-18T04:01:17.580Z,60.81
2023-03-18T04:03:49.770Z,60.80
2023-03-18T04:06:21.505Z,61.15
2023-03-18T04:08:53.216Z,61.29
2023-03-18T04:11:25.513Z,60.94
2023-03-18T04:13:57.054Z,61.04
2023-03-18T04:16:28.692Z,60.66
2023-03-18T04:19:00.268Z,60.84
2023-03-18T04:21:31.783Z,60.69
2023-03-18T04:24:04.037Z,61.02
2023-03-18T04:26:35.533Z,60.82
2023-03-18T04:29:07.407Z,60.58
2023-03-18T04:31:38.943Z,60.71
2023-03-18T04:34:11.418Z,61.18
2023-03-18T04:36:42.954Z,61.11
2023-03-18T04:39:14.631Z,61.02
2023-03-18T04:41:46.504Z,61.06
2023-03-18T04:44:19.594Z,61.39
2023-03-18T04:46:51.780Z,60.93
2023-03-18T04:49:24.713Z,61.48
2023-03-18T04:51:56.283Z,61.65
2023-03-18T04:54:28.383Z,61.57
2023-03-18T04:56:59.997Z,61.84
2023-03-18T04:59:31.867Z,61.84
2023-03-18T05:02:04.733Z,62.05
2023-03-18T05:04:36.559Z,62.11
2023-03-18T05:07:08.567Z,62.45
2023-03-18T05:09:40.075Z,62.75
2023-03-18T05:12:11.556Z,62.79
2023-03-18T05:14:43.280Z,62.61
2023-03-18T05:17:17.571Z,63.27
2023-03-18T05:19:49.418Z,63.29
2023-03-18T05:22:21.944Z,62.98
2023-03-18T05:24:53.851Z,63.51
2023-03-18T05:27:27.523Z,63.82
2023-03-18T05:29:59.099Z,63.66
2023-03-18T05:32:32.166Z,63.57
2023-03-18T05:35:04.165Z,64.31
2023-03-18T05:37:35.900Z,64.54
2023-03-18T05:40:12.133Z,64.32
2023-03-18T05:42:55.504Z,64.36
2023-03-18T05:45:28.325Z,64.42
2023-03-18T05:47:59.825Z,64.40
2023-03-18T05:50:31.691Z,64.43
2023-03-18T05:53:03.354Z,63.71
2023-03-18T05:55:35.264Z,63.61
2023-03-18T05:58:07.138Z,63.26
2023-03-18T06:00:39.083Z,63.82
2023-03-18T06:03:10.699Z,63.47
2023-03-18T06:05:42.397Z,63.34
2023-03-18T06:08:14.684Z,63.42
2023-03-18T06:10:46.439Z,62.85
2023-03-18T06:13:17.935Z,62.96
2023-03-18T06:15:49.436Z,62.94
2023-03-18T06:18:20.938Z,62.84
2023-03-18T06:20:53.002Z,63.17
2023-03-18T06:23:24.681Z,63.22
2023-03-18T06:25:56.518Z,63.61
2023-03-18T06:28:28.016Z,64.04
2023-03-18T06:30:59.541Z,64.08
2023-03-18T06:33:31.075Z,64.12
2023-03-18T06:36:03.272Z,64.42
2023-03-18T06:38:34.775Z,64.48
2023-03-18T06:41:06.417Z,64.89
2023-03-18T06:43:38.159Z,64.72
2023-03-18T06:46:10.873Z,64.74
2023-03-18T06:48:42.438Z,64.39
2023-03-18T06:51:14.106Z,64.14
2023-03-18T06:53:45.614Z,64.06
2023-03-18T06:56:17.291Z,64.16
2023-03-18T06:58:48.800Z,64.23
2023-03-18T07:01:21.298Z,63.97
2023-03-18T07:03:52.864Z,63.75
2023-03-18T07:06:24.727Z,63.65
2023-03-18T07:08:56.250Z,63.57
2023-03-18T07:11:27.940Z,63.45
2023-03-18T07:13:59.483Z,63.11
2023-03-18T07:16:31.617Z,62.01
2023-03-18T07:19:04.142Z,62.56
2023-03-18T07:21:37.384Z,62.58
2023-03-18T07:24:08.887Z,62.63
2023-03-18T07:26:41.730Z,62.75
2023-03-18T07:29:13.224Z,62.47
2023-03-18T07:31:44.972Z,61.69
2023-03-18T07:34:17.762Z,62.16
2023-03-18T07:36:49.629Z,61.16
2023-03-18T07:39:21.183Z,61.62
2023-03-18T07:41:52.779Z,61.83
2023-03-18T07:44:25.160Z,61.61
2023-03-18T07:46:56.888Z,61.63
2023-03-18T07:49:28.387Z,60.21
2023-03-18T07:51:59.907Z,59.29
2023-03-18T07:54:31.397Z,59.17
2023-03-18T07:57:04.693Z,59.19
2023-03-18T07:59:37.586Z,59.05
2023-03-18T08:02:09.267Z,59.49
2023-03-18T08:04:43.548Z,58.75
2023-03-18T08:07:15.086Z,57.46
2023-03-18T08:09:46.847Z,56.28
2023-03-18T08:12:19.250Z,54.53
2023-03-18T08:14:51.179Z,55.02
2023-03-18T08:17:23.230Z,54.95
2023-03-18T08:19:55.049Z,54.71
2023-03-18T08:22:26.607Z,54.05
2023-03-18T08:24:58.388Z,54.96
2023-03-18T08:27:30.447Z,53.79
2023-03-18T08:30:03.823Z,53.72
2023-03-18T08:32:35.677Z,52.08
2023-03-18T08:35:07.531Z,52.31
2023-03-18T08:37:39.086Z,50.10
2023-03-18T08:40:11.056Z,50.31
2023-03-18T08:42:42.588Z,51.17
2023-03-18T08:45:14.505Z,49.71
2023-03-18T08:47:46.004Z,49.67
2023-03-18T08:50:17.828Z,49.85
2023-03-18T08:52:49.373Z,49.45
2023-03-18T08:55:21.938Z,50.53
2023-03-18T08:57:53.528Z,51.64
2023-03-18T09:00:25.514Z,53.03
2023-03-18T09:02:57.118Z,53.40
2023-03-18T09:05:29.034Z,53.45
2023-03-18T09:08:00.576Z,52.64
2023-03-18T09:10:32.425Z,52.67
2023-03-18T09:13:05.469Z,53.37
2023-03-18T09:15:37.368Z,52.35
2023-03-18T09:18:12.075Z,51.12
2023-03-18T09:20:45.501Z,50.78
2023-03-18T09:23:18.309Z,50.45
2023-03-18T09:25:50.275Z,50.98
2023-03-18T09:28:21.808Z,50.12
2023-03-18T09:30:53.394Z,50.66
2023-03-18T09:33:25.512Z,50.51
2023-03-18T09:35:57.121Z,50.59
2023-03-18T09:38:28.640Z,50.17
2023-03-18T09:41:00.535Z,51.16
2023-03-18T09:43:32.204Z,49.66
2023-03-18T09:46:04.187Z,50.13
2023-03-18T09:48:35.734Z,49.76
2023-03-18T09:51:07.566Z,49.20
2023-03-18T09:53:39.079Z,49.24
2023-03-18T09:56:10.947Z,47.91
2023-03-18T09:58:42.902Z,45.59
2023-03-18T10:01:14.780Z,45.24
2023-03-18T10:03:46.796Z,48.26
2023-03-18T10:06:19.402Z,48.27
2023-03-18T10:08:51.041Z,47.14
2023-03-18T10:11:22.990Z,45.95
2023-03-18T10:13:54.920Z,44.53
2023-03-18T10:16:26.873Z,47.49
2023-03-18T10:18:58.471Z,48.95
2023-03-18T10:21:30.318Z,45.76
2023-03-18T10:24:02.098Z,45.45
2023-03-18T10:26:34.172Z,43.91
2023-03-18T10:29:05.775Z,43.64
2023-03-18T10:31:37.738Z,44.96
2023-03-18T10:34:09.598Z,45.37
2023-03-18T10:36:41.801Z,47.21
2023-03-18T10:39:13.547Z,46.83
2023-03-18T10:41:45.418Z,46.25
2023-03-18T10:44:17.200Z,47.03
2023-03-18T10:46:49.259Z,47.73
2023-03-18T10:49:20.831Z,48.02
2023-03-18T10:51:52.733Z,46.81
2023-03-18T10:54:24.249Z,47.37
2023-03-18T10:56:55.828Z,46.27
2023-03-18T10:59:27.343Z,48.82
2023-03-18T11:01:58.969Z,48.81
2023-03-18T11:04:30.627Z,49.75
2023-03-18T11:07:02.958Z,48.97
2023-03-18T11:09:36.133Z,48.71
2023-03-18T11:12:08.065Z,49.56
2023-03-18T11:14:40.304Z,49.02
2023-03-18T11:17:12.234Z,49.68
2023-03-18T11:19:45.294Z,49.70
2023-03-18T11:22:17.192Z,50.02
2023-03-18T11:24:48.960Z,48.49
2023-03-18T11:27:20.793Z,49.44
2023-03-18T11:29:52.278Z,48.98
2023-03-18T11:32:24.033Z,48.40
2023-03-18T11:34:57.277Z,51.49
2023-03-18T11:37:29.524Z,50.05
2023-03-18T11:40:01.037Z,51.63
2023-03-18T11:42:33.037Z,50.59
2023-03-18T11:45:05.127Z,50.86
2023-03-18T11:47:37.843Z,51.46
2023-03-18T11:50:09.353Z,49.33
2023-03-18T11:52:41.189Z,50.18
2023-03-18T11:55:12.703Z,49.39
2023-03-18T11:57:45.487Z,48.85
2023-03-18T12:00:17.486Z,47.36
2023-03-18T12:02:49.921Z,48.53
2023-03-18T12:05:21.527Z,50.05
2023-03-18T12:07:53.366Z,49.49
2023-03-18T12:10:25.892Z,49.69
2023-03-18T12:12:57.944Z,49.10
2023-03-18T12:15:29.445Z,48.34
2023-03-18T12:18:01.239Z,47.44
2023-03-18T12:20:33.046Z,47.81
2023-03-18T12:23:05.011Z,49.09
2023-03-18T12:25:37.016Z,49.07
2023-03-18T12:28:08.980Z,48.41
2023-03-18T12:30:40.940Z,48.94
2023-03-18T12:33:14.617Z,49.26
2023-03-18T12:35:46.573Z,49.27
2023-03-18T12:38:18.647Z,49.27
2023-03-18T12:40:50.456Z,48.78
2023-03-18T12:43:22.424Z,49.36
2023-03-18T12:45:53.979Z,48.70
2023-03-18T12:48:42.728Z,49.83
2023-03-18T12:51:15.579Z,49.85
2023-03-18T12:53:47.555Z,51.62
2023-03-18T12:56:19.171Z,49.65
2023-03-18T12:58:51.262Z,52.03
2023-03-18T13:01:24.260Z,53.26
2023-03-18T13:03:55.889Z,53.38
2023-03-18T13:06:27.457Z,52.97
2023-03-18T13:08:59.933Z,54.34
2023-03-18T13:11:31.455Z,54.97
2023-03-18T13:14:03.281Z,53.99
2023-03-18T13:16:34.840Z,50.56
2023-03-18T13:19:06.833Z,50.25
2023-03-18T13:21:38.918Z,47.55
2023-03-18T13:24:10.948Z,46.79
2023-03-18T13:26:42.494Z,46.89
2023-03-18T13:29:14.487Z,47.80
2023-03-18T13:31:46.088Z,45.79
2023-03-18T13:34:17.984Z,45.22
2023-03-18T13:36:49.568Z,46.16
2023-03-18T13:39:21.655Z,44.83
2023-03-18T13:41:53.159Z,44.19
2023-03-18T13:44:25.283Z,43.39
2023-03-18T13:46:56.827Z,45.11
2023-03-18T13:49:28.674Z,45.42
2023-03-18T13:52:01.064Z,44.86
2023-03-18T13:54:32.947Z,44.02
2023-03-18T13:57:04.465Z,43.66
2023-03-18T13:59:36.349Z,46.09
2023-03-18T14:02:07.917Z,46.08
2023-03-18T14:04:40.874Z,46.64
2023-03-18T14:07:12.581Z,48.33
2023-03-18T14:09:44.351Z,46.52
2023-03-18T14:12:16.880Z,46.29
2023-03-18T14:14:48.986Z,45.08
2023-03-18T14:17:20.532Z,44.48
2023-03-18T14:19:52.674Z,46.04
2023-03-18T14:22:24.240Z,45.98
2023-03-18T14:24:55.984Z,46.55
2023-03-18T14:27:28.330Z,46.10
2023-03-18T14:30:00.172Z,46.59
2023-03-18T14:32:31.895Z,45.05
2023-03-18T14:35:03.803Z,46.90
2023-03-18T14:37:35.473Z,46.98
2023-03-18T14:40:09.268Z,49.44
2023-03-18T14:42:41.994Z,50.94
2023-03-18T14:45:14.029Z,51.66
2023-03-18T14:47:46.138Z,50.16
2023-03-18T14:50:18.526Z,48.05
2023-03-18T14:52:50.053Z,50.46
2023-03-18T14:55:22.004Z,51.64
2023-03-18T14:57:53.778Z,52.94
2023-03-18T15:00:26.456Z,54.58
2023-03-18T15:03:00.647Z,55.86
2023-03-18T15:05:33.031Z,52.33
2023-03-18T15:08:04.737Z,50.59
2023-03-18T15:10:36.629Z,50.78
2023-03-18T15:13:08.455Z,49.77
2023-03-18T15:15:40.372Z,51.73
2023-03-18T15:18:11.916Z,51.91
2023-03-18T15:20:44.046Z,51.00
2023-03-18T15:23:16.046Z,53.71
2023-03-18T15:25:48.649Z,54.79
2023-03-18T15:28:20.222Z,54.95
2023-03-18T15:30:52.558Z,55.36
2023-03-18T15:33:24.173Z,56.09
2023-03-18T15:35:55.939Z,57.07
2023-03-18T15:38:27.513Z,57.40
2023-03-18T15:41:00.239Z,58.49
2023-03-18T15:43:32.621Z,58.49
2023-03-18T15:46:05.203Z,60.21
2023-03-18T15:48:36.860Z,60.06
2023-03-18T15:51:11.072Z,60.58
2023-03-18T15:53:44.421Z,60.91
2023-03-18T15:56:16.578Z,60.69
2023-03-18T15:58:48.085Z,60.96
2023-03-18T16:01:20.032Z,60.52
2023-03-18T16:03:51.634Z,61.56
2023-03-18T16:06:23.808Z,61.79
2023-03-18T16:08:55.770Z,61.10
2023-03-18T16:11:27.646Z,60.85
2023-03-18T16:13:59.718Z,61.07
2023-03-18T16:16:33.118Z,60.96
2023-03-18T16:19:07.001Z,61.03
2023-03-18T16:21:38.988Z,61.25
2023-03-18T16:24:10.622Z,61.68
2023-03-18T16:26:42.933Z,62.34
2023-03-18T16:29:15.551Z,62.95
2023-03-18T16:31:47.469Z,62.76
2023-03-18T16:34:21.731Z,64.06
2023-03-18T16:36:53.861Z,64.89
2023-03-18T16:39:27.083Z,64.78
2023-03-18T16:41:58.881Z,65.72
2023-03-18T16:44:30.762Z,65.90
2023-03-18T16:47:02.431Z,65.99
2023-03-18T16:49:35.916Z,66.30
2023-03-18T16:52:08.708Z,67.58
2023-03-18T16:54:40.770Z,68.22
2023-03-18T16:57:12.996Z,68.24
2023-03-18T16:59:44.714Z,68.99
2023-03-18T17:02:16.339Z,69.36
2023-03-18T17:04:48.139Z,70.21
2023-03-18T17:07:19.672Z,70.36
2023-03-18T17:09:52.588Z,71.17
2023-03-18T17:12:24.133Z,71.71
2023-03-18T17:14:55.809Z,72.50
2023-03-18T17:17:30.439Z,72.90
2023-03-18T17:20:02.278Z,73.32
2023-03-18T17:22:33.883Z,73.49
2023-03-18T17:25:05.446Z,73.57
2023-03-18T17:27:36.956Z,73.36
2023-03-18T17:30:09.917Z,73.67
2023-03-18T17:32:41.479Z,74.11
2023-03-18T17:35:13.377Z,73.60
2023-03-18T17:37:45.439Z,74.16
2023-03-18T17:40:17.580Z,74.49
2023-03-18T17:42:49.117Z,74.91
2023-03-18T17:45:21.337Z,74.79
2023-03-18T17:47:52.927Z,75.29
2023-03-18T17:50:24.795Z,76.17
2023-03-18T17:52:56.505Z,76.12
2023-03-18T17:55:28.315Z,76.25
2023-03-18T17:57:59.844Z,76.52
2023-03-18T18:00:33.148Z,76.72
2023-03-18T18:03:04.674Z,76.58
2023-03-18T18:05:36.550Z,76.92
2023-03-18T18:08:08.066Z,77.29
2023-03-18T18:10:39.947Z,77.25
2023-03-18T18:13:11.477Z,77.80
2023-03-18T18:15:43.800Z,77.82
2023-03-18T18:18:20.201Z,78.51
2023-03-18T18:20:52.004Z,79.57
2023-03-18T18:23:23.498Z,78.57
2023-03-18T18:25:55.048Z,79.53
2023-03-18T18:28:27.061Z,79.16
2023-03-18T18:30:58.768Z,79.33
2023-03-18T18:33:30.431Z,79.82
2023-03-18T18:36:02.272Z,80.01
2023-03-18T18:38:33.844Z,81.38
2023-03-18T18:41:06.131Z,81.32
2023-03-18T18:43:37.684Z,80.82
2023-03-18T18:46:09.608Z,80.04
2023-03-18T18:48:41.128Z,80.12
2023-03-18T18:51:12.925Z,80.33
2023-03-18T18:53:44.432Z,80.82
2023-03-18T18:56:16.152Z,81.08
2023-03-18T18:58:47.674Z,81.57
2023-03-18T19:01:19.228Z,81.79
2023-03-18T19:03:50.978Z,81.85
2023-03-18T19:06:22.884Z,82.02
2023-03-18T19:08:54.461Z,80.95
2023-03-18T19:11:26.325Z,81.73
2023-03-18T19:13:58.685Z,81.59
2023-03-18T19:16:30.787Z,81.11
2023-03-18T19:19:03.078Z,80.35
2023-03-18T19:21:34.952Z,79.86
2023-03-18T19:24:06.538Z,81.06
2023-03-18T19:26:38.452Z,82.09
2023-03-18T19:29:09.980Z,81.74
2023-03-18T19:31:41.617Z,80.89
2023-03-18T19:34:13.184Z,81.84
2023-03-18T19:36:44.782Z,82.36
2023-03-18T19:39:16.474Z,82.82
2023-03-18T19:41:48.018Z,83.10
2023-03-18T19:44:19.576Z,82.96
2023-03-18T19:46:51.181Z,83.58
2023-03-18T19:49:23.062Z,83.18
2023-03-18T19:51:54.603Z,82.41
2023-03-18T19:54:27.286Z,82.62
2023-03-18T19:57:01.124Z,82.41
2023-03-18T19:59:38.640Z,82.44
2023-03-18T20:02:10.897Z,82.43
2023-03-18T20:04:42.871Z,82.57
2023-03-18T20:07:14.486Z,83.62
2023-03-18T20:09:46.225Z,83.03
2023-03-18T20:12:17.764Z,81.03
2023-03-18T20:14:49.289Z,81.68
2023-03-18T20:17:20.810Z,80.33
2023-03-18T20:19:52.754Z,79.54
2023-03-18T20:22:24.290Z,78.81
2023-03-18T20:24:56.118Z,78.05
2023-03-18T20:27:27.788Z,78.92
2023-03-18T20:29:59.383Z,78.17
2023-03-18T20:32:31.053Z,79.49
2023-03-18T20:35:03.758Z,78.31
2023-03-18T20:37:36.178Z,78.18
2023-03-18T20:40:08.459Z,77.88
2023-03-18T20:42:39.999Z,77.77
2023-03-18T20:45:11.647Z,77.65
2023-03-18T20:47:43.896Z,78.42
2023-03-18T20:50:15.829Z,77.62
2023-03-18T20:52:47.505Z,77.54
2023-03-18T20:55:19.027Z,78.03
2023-03-18T20:57:50.698Z,76.66
2023-03-18T21:00:23.760Z,76.78
2023-03-18T21:02:55.333Z,76.35
2023-03-18T21:05:27.668Z,75.53
2023-03-18T21:07:59.183Z,75.70
2023-03-18T21:10:31.182Z,74.83
2023-03-18T21:13:02.808Z,75.61
2023-03-18T21:15:34.697Z,75.59
2023-03-18T21:18:06.378Z,75.33
2023-03-18T21:20:37.901Z,75.67
2023-03-18T21:23:09.425Z,75.91
2023-03-18T21:25:40.981Z,75.55
2023-03-18T21:28:12.554Z,76.31
2023-03-18T21:30:44.141Z,76.43
2023-03-18T21:33:15.694Z,76.46
2023-03-18T21:35:47.728Z,76.92
2023-03-18T21:38:19.293Z,77.54
2023-03-18T21:40:51.904Z,79.01
2023-03-18T21:43:23.454Z,79.08
2023-03-18T21:45:55.112Z,79.36
2023-03-18T21:48:26.672Z,79.48
2023-03-18T21:50:58.247Z,79.83
2023-03-18T21:53:29.751Z,80.22
2023-03-18T21:56:01.534Z,81.66
2023-03-18T21:58:33.059Z,81.64
2023-03-18T22:01:05.079Z,80.51
2023-03-18T22:03:36.669Z,80.11
2023-03-18T22:06:08.481Z,81.76
2023-03-18T22:08:40.060Z,81.61
2023-03-18T22:11:11.612Z,81.03
2023-03-18T22:13:43.197Z,81.02
2023-03-18T22:16:14.829Z,81.95
2023-03-18T22:18:47.359Z,81.70
2023-03-18T22:21:19.194Z,82.36
2023-03-18T22:23:50.805Z,82.53
2023-03-18T22:26:22.347Z,83.35
2023-03-18T22:28:54.119Z,82.54
2023-03-18T22:31:25.721Z,83.47
2023-03-18T22:33:57.297Z,82.72
2023-03-18T22:36:29.593Z,82.65
2023-03-18T22:39:01.116Z,82.84
2023-03-18T22:41:32.622Z,82.71
2023-03-18T22:44:04.199Z,83.44
2023-03-18T22:46:36.164Z,84.01
2023-03-18T22:49:08.590Z,85.71
2023-03-18T22:51:42.075Z,85.43
2023-03-18T22:54:13.871Z,86.40
2023-03-18T22:56:45.512Z,87.18
2023-03-18T22:59:17.233Z,87.46
2023-03-18T23:01:48.781Z,87.96
2023-03-18T23:04:20.677Z,88.55
2023-03-18T23:06:52.391Z,88.42
2023-03-18T23:09:24.230Z,86.99
2023-03-18T23:11:55.743Z,88.22
2023-03-18T23:14:27.638Z,88.61
2023-03-18T23:16:59.175Z,88.36
2023-03-18T23:19:30.934Z,89.11
2023-03-18T23:22:02.533Z,90.00
2023-03-18T23:24:34.457Z,90.90
2023-03-18T23:27:05.989Z,92.00
2023-03-18T23:29:37.742Z,92.97
2023-03-18T23:32:09.302Z,93.03
2023-03-18T23:34:41.290Z,93.33
2023-03-18T23:37:12.805Z,94.12
2023-03-18T23:39:46.434Z,93.46
2023-03-18T23:42:18.007Z,95.15
2023-03-18T23:44:49.932Z,96.29
2023-03-18T23:47:21.574Z,96.60
2023-03-18T23:49:53.627Z,96.11
2023-03-18T23:52:25.167Z,95.87
2023-03-18T23:54:56.687Z,95.85
2023-03-18T23:57:28.208Z,94.92
2023-03-18T23:59:59.739Z,94.88
